Nelsonville, Wisconsin
Current Conditions -  °F | °C
As of 1:15 PM on Monday 22 Dec 2014 (Local Time) from KSTE Reporting Station
Haze Haze  
Wind Chill: 25°   Ceiling: 3500
Heat Index: 33°   Visibility: 4mi
Dew Point: 30°   Wind: 9mph
Humidity: 90%   Direction: 110°ESE
Pressure: 29.75"   Gusts: NA
Location:  44.49°N, 89.31°W
Report Text: KSTE 221915Z AUTO 11008KT 4SM BR OVC035 00/M01 A2975 RMK AO2 T00031012
Loading
Personal Weather Stations






























Interactive Weather Map New forecast layout! Learn more

10-Day Weather Forecast

Advertisements
Track Severe Weather on mobile